createdAt,value
2017-04-26T06:30:58.958Z,67.20
2017-04-26T06:31:57.320Z,67.20
2017-04-26T06:32:55.637Z,67.30
2017-04-26T06:33:53.976Z,67.50
2017-04-26T06:34:52.612Z,67.30
2017-04-26T06:35:50.957Z,67.20
2017-04-26T06:36:49.316Z,66.90
2017-04-26T06:37:47.666Z,66.90
2017-04-26T06:38:46.412Z,66.90
2017-04-26T06:39:44.768Z,66.90
2017-04-26T06:40:43.556Z,67.10
2017-04-26T06:41:41.908Z,67.00
2017-04-26T06:42:40.264Z,67.40
2017-04-26T06:43:38.604Z,67.00
2017-04-26T06:44:36.941Z,66.80
2017-04-26T06:45:35.594Z,66.80
2017-04-26T06:46:33.968Z,66.90
2017-04-26T06:47:32.315Z,66.50
2017-04-26T06:48:30.699Z,66.50
2017-04-26T06:49:29.063Z,66.50
2017-04-26T06:50:27.435Z,66.50
2017-04-26T06:51:25.876Z,66.40
2017-04-26T06:52:24.271Z,66.40
2017-04-26T06:53:23.047Z,66.40
2017-04-26T06:54:21.444Z,66.40
2017-04-26T06:55:19.816Z,66.40
2017-04-26T06:56:18.834Z,66.30
2017-04-26T06:57:17.224Z,66.30
2017-04-26T06:58:15.988Z,66.30
2017-04-26T06:59:14.368Z,66.20
2017-04-26T07:00:12.795Z,66.00
2017-04-26T07:01:11.177Z,66.00
2017-04-26T07:02:09.577Z,66.00
2017-04-26T07:03:08.338Z,65.90
2017-04-26T07:04:07.645Z,65.90
2017-04-26T07:05:06.039Z,65.70
2017-04-26T07:06:04.501Z,66.10
2017-04-26T07:07:03.163Z,66.00
2017-04-26T07:08:01.536Z,66.00
2017-04-26T07:09:00.830Z,66.00
2017-04-26T07:09:59.320Z,66.00
2017-04-26T07:10:57.721Z,66.00
2017-04-26T07:11:56.184Z,65.60
2017-04-26T07:12:54.824Z,65.70
2017-04-26T07:13:53.633Z,65.60
2017-04-26T07:14:52.019Z,65.60
2017-04-26T07:15:50.413Z,65.70
2017-04-26T07:16:48.831Z,65.80
2017-04-26T07:17:47.662Z,65.80
2017-04-26T07:18:46.029Z,65.80
2017-04-26T07:19:44.408Z,65.70
2017-04-26T07:20:42.805Z,65.70
2017-04-26T07:21:41.220Z,66.00
2017-04-26T07:22:39.646Z,66.00
2017-04-26T07:23:38.067Z,65.70
2017-04-26T07:24:36.440Z,65.60
2017-04-26T07:25:34.795Z,65.20
2017-04-26T07:26:33.593Z,65.30
2017-04-26T07:27:31.957Z,65.30
2017-04-26T07:28:30.623Z,65.50
2017-04-26T07:29:28.999Z,65.70
2017-04-26T07:30:27.348Z,65.70
2017-04-26T07:31:25.697Z,65.60
2017-04-26T07:32:24.063Z,65.40
2017-04-26T07:33:22.439Z,65.70
2017-04-26T07:34:20.933Z,65.50
2017-04-26T07:35:19.312Z,65.30
2017-04-26T07:36:17.679Z,65.40
2017-04-26T07:37:16.067Z,65.30
2017-04-26T07:38:14.452Z,65.20
2017-04-26T07:39:13.095Z,65.10
2017-04-26T07:40:11.476Z,65.30
2017-04-26T07:41:09.895Z,65.30
2017-04-26T07:42:08.285Z,65.30
2017-04-26T07:43:06.773Z,65.40
2017-04-26T07:44:05.131Z,65.40
2017-04-26T07:45:04.212Z,65.50
2017-04-26T07:46:02.603Z,65.50
2017-04-26T07:47:01.352Z,65.00
2017-04-26T07:48:00.351Z,65.00
2017-04-26T07:48:58.678Z,65.00
2017-04-26T07:49:57.046Z,64.90
2017-04-26T07:50:55.441Z,65.10
2017-04-26T07:51:53.817Z,65.00
2017-04-26T07:52:52.184Z,65.00
2017-04-26T07:53:50.527Z,65.30
2017-04-26T07:54:49.291Z,65.80
2017-04-26T07:55:47.945Z,65.80
2017-04-26T07:56:46.337Z,66.00
2017-04-26T07:57:44.727Z,65.70
2017-04-26T07:58:43.114Z,65.70
2017-04-26T07:59:41.477Z,65.70
2017-04-26T08:00:39.824Z,65.40
2017-04-26T08:01:38.224Z,65.40
2017-04-26T08:02:37.002Z,65.60
2017-04-26T08:03:35.399Z,65.60
2017-04-26T08:04:33.815Z,65.50
2017-04-26T08:05:32.173Z,65.30
2017-04-26T08:06:30.821Z,65.20
2017-04-26T08:07:29.196Z,64.80
2017-04-26T08:08:27.623Z,64.80
2017-04-26T08:09:26.396Z,64.60
2017-04-26T08:10:24.782Z,64.60
2017-04-26T08:11:23.141Z,64.70
2017-04-26T08:12:21.525Z,64.90
2017-04-26T08:13:20.305Z,64.50
2017-04-26T08:14:18.655Z,64.50
2017-04-26T08:15:17.348Z,64.60
2017-04-26T08:16:15.749Z,64.50
2017-04-26T08:17:14.392Z,64.60
2017-04-26T08:18:12.763Z,64.10
2017-04-26T08:19:11.185Z,63.80
2017-04-26T08:20:09.560Z,64.00
2017-04-26T08:21:07.937Z,64.30
2017-04-26T08:22:06.708Z,64.50
2017-04-26T08:23:05.324Z,64.50
2017-04-26T08:24:03.655Z,64.30
2017-04-26T08:25:01.999Z,63.90
2017-04-26T08:26:00.349Z,63.60
2017-04-26T08:26:59.107Z,63.30
2017-04-26T08:27:57.471Z,63.30
2017-04-26T08:28:56.079Z,63.40
2017-04-26T08:29:54.814Z,63.10
2017-04-26T08:30:53.231Z,63.10
2017-04-26T08:31:51.983Z,62.80
2017-04-26T08:32:50.339Z,62.80
2017-04-26T08:33:48.708Z,62.80
2017-04-26T08:34:47.057Z,62.80
2017-04-26T08:35:46.941Z,62.70
2017-04-26T08:36:45.417Z,62.80
2017-04-26T08:37:44.160Z,62.20
2017-04-26T08:38:42.528Z,62.20
2017-04-26T08:39:40.947Z,62.10
2017-04-26T08:40:39.706Z,62.20
2017-04-26T08:41:38.048Z,62.20
2017-04-26T08:42:36.411Z,61.70
2017-04-26T08:43:34.765Z,61.30
2017-04-26T08:44:33.815Z,61.40
2017-04-26T08:45:32.206Z,61.40
2017-04-26T08:46:30.568Z,61.70
2017-04-26T08:47:28.931Z,62.10
2017-04-26T08:48:27.313Z,62.30
2017-04-26T08:49:25.688Z,61.50
2017-04-26T08:50:24.363Z,61.20
2017-04-26T08:51:22.735Z,61.20
2017-04-26T08:52:21.365Z,61.60
2017-04-26T08:53:19.722Z,61.50
2017-04-26T08:54:18.080Z,61.30
2017-04-26T08:55:16.431Z,61.20
2017-04-26T08:56:15.459Z,61.50
2017-04-26T08:57:14.239Z,61.00
2017-04-26T08:58:12.572Z,61.00
2017-04-26T08:59:10.899Z,61.10
2017-04-26T09:00:09.304Z,61.00
2017-04-26T09:01:07.669Z,61.20
2017-04-26T09:02:06.326Z,61.40
2017-04-26T09:03:04.739Z,61.30
2017-04-26T09:04:03.116Z,60.60
2017-04-26T09:05:01.476Z,60.20
2017-04-26T09:05:59.845Z,60.70
2017-04-26T09:06:58.237Z,61.60
2017-04-26T09:07:56.703Z,61.80
2017-04-26T09:08:55.091Z,61.90
2017-04-26T09:09:53.435Z,61.00
2017-04-26T09:10:51.786Z,60.40
2017-04-26T09:11:50.156Z,60.40
2017-04-26T09:12:48.705Z,59.90
2017-04-26T09:13:47.433Z,59.20
2017-04-26T09:14:45.831Z,58.90
2017-04-26T09:15:44.197Z,59.20
2017-04-26T09:16:42.552Z,59.90
2017-04-26T09:17:40.972Z,59.70
2017-04-26T09:18:39.399Z,59.60
2017-04-26T09:19:38.048Z,59.70
2017-04-26T09:20:36.455Z,58.70
2017-04-26T09:21:34.796Z,59.30
2017-04-26T09:22:33.603Z,58.90
2017-04-26T09:23:31.975Z,58.90
2017-04-26T09:24:30.365Z,59.00
2017-04-26T09:25:29.031Z,59.20
2017-04-26T09:26:27.398Z,59.20
2017-04-26T09:27:25.744Z,59.50
2017-04-26T09:28:24.122Z,59.30
2017-04-26T09:29:22.803Z,59.40
2017-04-26T09:30:21.197Z,59.90
2017-04-26T09:31:19.878Z,61.70
2017-04-26T09:32:18.651Z,60.50
2017-04-26T09:33:17.031Z,60.50
2017-04-26T09:34:15.383Z,61.60
2017-04-26T09:35:13.763Z,60.70
2017-04-26T09:36:12.170Z,60.00
2017-04-26T09:37:10.755Z,60.40
2017-04-26T09:38:09.144Z,60.20
2017-04-26T09:39:07.925Z,61.20
2017-04-26T09:40:06.279Z,61.30
2017-04-26T09:41:04.691Z,60.80
2017-04-26T09:42:03.087Z,60.50
2017-04-26T09:43:01.768Z,59.80
2017-04-26T09:44:00.199Z,59.50
2017-04-26T09:44:58.996Z,58.90
2017-04-26T09:45:57.792Z,59.10
2017-04-26T09:46:56.201Z,59.20
2017-04-26T09:47:54.627Z,59.30
2017-04-26T09:48:53.269Z,59.00
2017-04-26T09:49:51.675Z,58.90
2017-04-26T09:50:50.065Z,59.00
2017-04-26T09:51:48.423Z,59.00
2017-04-26T09:52:46.809Z,59.00
2017-04-26T09:53:45.189Z,59.20
2017-04-26T09:54:44.235Z,59.50
2017-04-26T09:55:43.287Z,59.50
2017-04-26T09:56:42.087Z,59.90
2017-04-26T09:57:40.485Z,59.90
2017-04-26T09:58:38.884Z,59.50
2017-04-26T09:59:37.251Z,59.40
2017-04-26T10:00:36.016Z,59.40
2017-04-26T10:01:34.407Z,59.50
2017-04-26T10:02:32.743Z,59.30
2017-04-26T10:03:31.142Z,59.20
2017-04-26T10:04:29.539Z,60.40
2017-04-26T10:05:27.912Z,60.80
2017-04-26T10:06:26.383Z,60.40
2017-04-26T10:07:24.805Z,60.60
2017-04-26T10:08:23.152Z,60.90
2017-04-26T10:09:21.605Z,60.80
2017-04-26T10:10:19.996Z,60.50
2017-04-26T10:11:18.403Z,59.90
2017-04-26T10:12:17.072Z,59.80
2017-04-26T10:13:15.467Z,59.40
2017-04-26T10:14:13.859Z,58.60
2017-04-26T10:15:12.206Z,58.40
2017-04-26T10:16:10.782Z,58.80
2017-04-26T10:17:09.151Z,58.60
2017-04-26T10:18:07.777Z,58.70
2017-04-26T10:19:06.172Z,59.40
2017-04-26T10:20:04.898Z,59.80
2017-04-26T10:21:03.705Z,59.80
2017-04-26T10:22:02.098Z,59.80
2017-04-26T10:23:00.851Z,59.50
2017-04-26T10:23:59.531Z,59.50
2017-04-26T10:24:58.316Z,59.60
2017-04-26T10:25:56.687Z,59.60
2017-04-26T10:26:55.017Z,60.40
2017-04-26T10:28:03.090Z,60.50
2017-04-26T10:28:51.827Z,59.10
2017-04-26T10:29:50.504Z,58.40
2017-04-26T10:30:48.998Z,58.80
2017-04-26T10:31:47.356Z,59.60
2017-04-26T10:32:45.746Z,59.10
2017-04-26T10:33:44.504Z,59.20
2017-04-26T10:34:43.588Z,59.20
2017-04-26T10:35:41.884Z,58.50
2017-04-26T10:36:40.248Z,58.50
2017-04-26T10:37:38.585Z,58.20
2017-04-26T10:38:36.930Z,58.50
2017-04-26T10:39:35.707Z,58.70
2017-04-26T10:40:34.081Z,58.70
2017-04-26T10:41:32.724Z,58.20
2017-04-26T10:42:33.567Z,58.00
2017-04-26T10:43:29.512Z,57.90
2017-04-26T10:44:27.869Z,58.10
2017-04-26T10:45:26.629Z,58.70
2017-04-26T10:46:24.984Z,58.70
2017-04-26T10:47:23.670Z,58.80
2017-04-26T10:48:22.075Z,58.70
2017-04-26T10:49:20.440Z,59.20
2017-04-26T10:50:19.205Z,59.20
2017-04-26T10:51:17.591Z,59.20
2017-04-26T10:52:16.442Z,59.10
2017-04-26T10:53:15.114Z,59.10
2017-04-26T10:54:13.996Z,59.10
2017-04-26T10:55:12.380Z,59.10
2017-04-26T10:56:11.120Z,59.10
2017-04-26T10:57:09.508Z,58.70
2017-04-26T10:58:07.998Z,58.50
2017-04-26T10:59:06.769Z,58.40
2017-04-26T11:00:05.191Z,58.40
2017-04-26T11:01:03.983Z,59.10
2017-04-26T11:02:02.314Z,59.10
2017-04-26T11:03:00.712Z,59.40
2017-04-26T11:03:59.095Z,59.40
2017-04-26T11:04:58.151Z,59.60
2017-04-26T11:05:56.543Z,59.60
2017-04-26T11:06:54.905Z,58.00
2017-04-26T11:07:53.295Z,58.00
2017-04-26T11:08:51.687Z,58.10
2017-04-26T11:09:50.094Z,58.60
2017-04-26T11:10:49.176Z,58.10
2017-04-26T11:11:47.563Z,58.10
2017-04-26T11:12:45.929Z,58.30
2017-04-26T11:13:44.299Z,58.50
2017-04-26T11:14:42.682Z,58.60
2017-04-26T11:15:41.479Z,59.50
2017-04-26T11:16:40.168Z,59.50
2017-04-26T11:17:38.552Z,58.80
2017-04-26T11:18:36.936Z,58.20
2017-04-26T11:19:35.312Z,57.90
2017-04-26T11:20:33.725Z,58.00
2017-04-26T11:21:32.177Z,57.70
2017-04-26T11:22:30.872Z,58.30
2017-04-26T11:23:29.285Z,58.20
2017-04-26T11:24:27.653Z,58.30
2017-04-26T11:25:26.045Z,58.90
2017-04-26T11:26:24.460Z,57.80
2017-04-26T11:27:22.885Z,57.00
2017-04-26T11:28:21.424Z,56.80
2017-04-26T11:29:19.813Z,57.00
2017-04-26T11:30:18.236Z,57.20
2017-04-26T11:31:16.653Z,57.50
2017-04-26T11:32:15.054Z,57.40
2017-04-26T11:33:13.856Z,57.50
2017-04-26T11:34:12.481Z,57.50
2017-04-26T11:35:10.941Z,57.40
2017-04-26T11:36:09.745Z,57.00
2017-04-26T11:37:08.533Z,57.10
2017-04-26T11:38:06.966Z,57.00
2017-04-26T11:39:05.707Z,57.30
2017-04-26T11:40:04.359Z,57.30
2017-04-26T11:41:02.822Z,56.60
2017-04-26T11:42:01.264Z,56.40
2017-04-26T11:42:59.652Z,56.90
2017-04-26T11:43:58.498Z,57.00
2017-04-26T11:44:56.925Z,57.00
2017-04-26T11:45:55.640Z,56.70
2017-04-26T11:46:54.470Z,56.60
2017-04-26T11:47:52.864Z,56.60
2017-04-26T11:48:51.241Z,56.30
2017-04-26T11:49:49.627Z,56.20
2017-04-26T11:50:48.009Z,56.20
2017-04-26T11:51:46.690Z,56.40
2017-04-26T11:52:45.077Z,56.50
2017-04-26T11:53:43.458Z,56.30
2017-04-26T11:54:41.827Z,55.90
2017-04-26T11:55:40.234Z,55.80
2017-04-26T11:56:39.026Z,55.80
2017-04-26T11:57:37.717Z,55.80
2017-04-26T11:58:36.103Z,56.40
2017-04-26T11:59:34.488Z,56.80
2017-04-26T12:00:32.878Z,56.40
2017-04-26T12:01:31.333Z,55.90
2017-04-26T12:02:30.132Z,56.10
2017-04-26T12:03:29.201Z,57.40
2017-04-26T12:04:27.611Z,57.40
2017-04-26T12:05:25.992Z,57.40
2017-04-26T12:06:24.370Z,57.50
2017-04-26T12:07:22.748Z,56.80
2017-04-26T12:08:21.141Z,56.70
2017-04-26T12:09:20.196Z,56.20
2017-04-26T12:10:18.966Z,56.50
2017-04-26T12:11:17.389Z,56.50
2017-04-26T12:12:15.751Z,56.90
2017-04-26T12:13:14.167Z,56.30
2017-04-26T12:14:12.625Z,56.10
2017-04-26T12:15:11.300Z,55.60
2017-04-26T12:16:10.083Z,55.80
2017-04-26T12:17:08.439Z,55.80
2017-04-26T12:18:06.802Z,55.40
2017-04-26T12:19:05.197Z,55.10
2017-04-26T12:20:04.006Z,54.90
2017-04-26T12:21:02.648Z,54.90
2017-04-26T12:22:01.412Z,54.10
2017-04-26T12:23:00.124Z,54.10
2017-04-26T12:23:58.468Z,55.20
2017-04-26T12:24:56.880Z,55.00
2017-04-26T12:25:55.253Z,55.20
2017-04-26T12:26:54.107Z,55.60
2017-04-26T12:27:52.468Z,55.90
2017-04-26T12:28:50.801Z,55.60
2017-04-26T12:29:49.139Z,56.20
2017-04-26T12:30:47.526Z,56.50
2017-04-26T12:31:45.884Z,57.20
2017-04-26T12:32:44.943Z,56.50
2017-04-26T12:33:43.351Z,56.50
2017-04-26T12:34:41.754Z,56.40
2017-04-26T12:35:40.137Z,56.30
2017-04-26T12:36:38.550Z,55.60
2017-04-26T12:37:36.953Z,55.40
2017-04-26T12:38:35.647Z,56.70
2017-04-26T12:39:34.079Z,56.30
2017-04-26T12:40:32.868Z,55.90
2017-04-26T12:41:31.240Z,55.90
2017-04-26T12:42:29.672Z,56.00
2017-04-26T12:43:28.155Z,56.40
2017-04-26T12:44:26.866Z,56.30
2017-04-26T12:45:25.679Z,56.60
2017-04-26T12:46:24.072Z,56.60
2017-04-26T12:47:22.457Z,57.80
2017-04-26T12:48:20.855Z,57.10
2017-04-26T12:49:19.246Z,56.80
2017-04-26T12:50:17.939Z,56.50
2017-04-26T12:51:16.365Z,55.80
2017-04-26T12:52:14.760Z,55.30
2017-04-26T12:53:13.095Z,54.90
2017-04-26T12:54:11.480Z,54.80
2017-04-26T12:55:09.867Z,55.00
2017-04-26T12:56:08.519Z,54.60
2017-04-26T12:57:06.910Z,54.20
2017-04-26T12:58:05.273Z,54.10
2017-04-26T12:59:03.639Z,53.80
2017-04-26T13:00:02.007Z,54.10
2017-04-26T13:01:00.352Z,54.20
2017-04-26T13:01:58.890Z,54.90
2017-04-26T13:02:57.267Z,54.30
2017-04-26T13:03:55.631Z,54.30
2017-04-26T13:04:53.954Z,54.20
2017-04-26T13:05:52.334Z,54.50
2017-04-26T13:06:50.714Z,54.40
2017-04-26T13:07:49.410Z,54.20
2017-04-26T13:08:47.779Z,55.60
2017-04-26T13:09:46.124Z,54.80
2017-04-26T13:10:44.511Z,54.30
2017-04-26T13:11:42.982Z,54.40
2017-04-26T13:12:41.356Z,54.50
2017-04-26T13:13:39.985Z,54.30
2017-04-26T13:14:38.355Z,55.00
2017-04-26T13:15:36.700Z,55.00
2017-04-26T13:16:35.056Z,53.10
2017-04-26T13:17:33.477Z,52.50
2017-04-26T13:18:31.915Z,52.50
2017-04-26T13:19:30.563Z,52.90
2017-04-26T13:20:28.933Z,53.70
2017-04-26T13:21:27.281Z,53.70
2017-04-26T13:22:25.625Z,53.20
2017-04-26T13:23:23.988Z,52.60
2017-04-26T13:24:22.376Z,52.00
2017-04-26T13:25:21.019Z,51.80
2017-04-26T13:26:19.407Z,50.70
2017-04-26T13:27:17.751Z,51.70
2017-04-26T13:28:16.188Z,50.70
2017-04-26T13:29:14.578Z,50.70
2017-04-26T13:30:12.973Z,50.80
2017-04-26T13:31:11.664Z,51.20
2017-04-26T13:32:10.027Z,50.80
2017-04-26T13:33:08.357Z,52.00
2017-04-26T13:34:06.751Z,51.20
2017-04-26T13:35:05.540Z,51.60
2017-04-26T13:36:03.980Z,51.60
2017-04-26T13:37:02.662Z,51.30
2017-04-26T13:38:01.044Z,51.50
2017-04-26T13:38:59.410Z,51.30
2017-04-26T13:39:57.784Z,51.10
2017-04-26T13:40:56.181Z,51.80
2017-04-26T13:41:54.585Z,52.60
2017-04-26T13:42:53.265Z,52.20
2017-04-26T13:43:51.687Z,51.40
2017-04-26T13:44:50.025Z,51.20
2017-04-26T13:45:48.384Z,50.80
2017-04-26T13:46:47.179Z,50.50
2017-04-26T13:47:45.574Z,50.50
2017-04-26T13:48:44.260Z,50.20
2017-04-26T13:49:42.646Z,49.00
2017-04-26T13:50:41.049Z,49.50
2017-04-26T13:51:39.428Z,50.90
2017-04-26T13:52:37.804Z,51.10
2017-04-26T13:53:36.222Z,50.50
2017-04-26T13:54:34.832Z,50.50
2017-04-26T13:55:33.262Z,50.90
2017-04-26T13:56:31.646Z,50.80
2017-04-26T13:57:30.033Z,50.50
2017-04-26T13:58:28.522Z,51.00
2017-04-26T13:59:26.921Z,52.00
2017-04-26T14:00:26.005Z,52.10
2017-04-26T14:01:24.471Z,52.00
2017-04-26T14:02:23.278Z,52.30
2017-04-26T14:03:21.649Z,52.30
2017-04-26T14:04:20.053Z,52.40
2017-04-26T14:05:18.862Z,51.80
2017-04-26T14:06:18.772Z,51.80
2017-04-26T14:07:17.306Z,51.70
2017-04-26T14:08:15.709Z,52.00
2017-04-26T14:09:14.085Z,52.10
2017-04-26T14:10:12.533Z,52.00
2017-04-26T14:11:10.933Z,52.00
2017-04-26T14:12:09.650Z,52.10
2017-04-26T14:13:08.059Z,52.40
2017-04-26T14:14:06.420Z,52.60
2017-04-26T14:15:04.848Z,52.50
2017-04-26T14:16:03.235Z,52.20
2017-04-26T14:17:01.672Z,52.20
2017-04-26T14:18:00.365Z,52.20
2017-04-26T14:18:58.812Z,52.40
2017-04-26T14:19:57.208Z,53.60
2017-04-26T14:20:55.619Z,53.00
2017-04-26T14:21:54.028Z,52.90
2017-04-26T14:22:52.926Z,54.20
2017-04-26T14:23:51.665Z,54.10
2017-04-26T14:24:50.495Z,54.40
2017-04-26T14:25:48.906Z,54.40
2017-04-26T14:26:47.308Z,53.90
2017-04-26T14:27:46.104Z,54.20
2017-04-26T14:28:44.509Z,54.20
2017-04-26T14:29:43.242Z,54.80
2017-04-26T14:30:42.052Z,55.40
2017-04-26T14:31:40.878Z,55.60
2017-04-26T14:32:39.248Z,55.60
2017-04-26T14:33:37.657Z,54.40
2017-04-26T14:34:36.060Z,53.90
2017-04-26T14:35:34.778Z,53.20
2017-04-26T14:36:35.597Z,53.20
2017-04-26T14:37:34.124Z,53.20
2017-04-26T14:38:32.489Z,53.50
2017-04-26T14:39:31.318Z,53.30
2017-04-26T14:40:29.700Z,53.30
2017-04-26T14:41:28.784Z,53.00
2017-04-26T14:42:27.156Z,53.00
2017-04-26T14:43:25.901Z,52.80
2017-04-26T14:44:24.253Z,52.80
2017-04-26T14:45:23.061Z,52.50
2017-04-26T14:46:21.862Z,52.90
2017-04-26T14:47:20.565Z,52.90
2017-04-26T14:48:18.960Z,52.50
2017-04-26T14:49:17.503Z,52.60
2017-04-26T14:50:15.898Z,52.60
2017-04-26T14:51:14.304Z,52.30
2017-04-26T14:52:12.704Z,52.70
2017-04-26T14:53:11.367Z,52.70
2017-04-26T14:54:09.769Z,52.70
2017-04-26T14:55:08.179Z,53.80
2017-04-26T14:56:06.545Z,54.00
2017-04-26T14:57:04.953Z,54.90
2017-04-26T14:58:03.736Z,55.20
2017-04-26T14:59:02.420Z,55.20
2017-04-26T15:00:00.828Z,56.20
2017-04-26T15:00:59.266Z,55.60
2017-04-26T15:01:57.645Z,54.70
2017-04-26T15:02:56.036Z,54.70
2017-04-26T15:03:54.465Z,55.40
2017-04-26T15:04:53.131Z,55.90
2017-04-26T15:05:51.525Z,54.80
2017-04-26T15:06:49.918Z,55.40
2017-04-26T15:07:48.300Z,57.00
2017-04-26T15:08:47.169Z,55.80
2017-04-26T15:09:45.568Z,55.80
2017-04-26T15:10:44.240Z,56.50
2017-04-26T15:11:42.869Z,56.90
2017-04-26T15:12:41.254Z,56.10
2017-04-26T15:13:39.620Z,55.40
2017-04-26T15:14:38.028Z,55.30
2017-04-26T15:15:36.454Z,55.90
2017-04-26T15:16:35.146Z,55.80
2017-04-26T15:17:33.566Z,55.70
2017-04-26T15:18:32.361Z,55.60
2017-04-26T15:19:30.739Z,53.90
2017-04-26T15:20:29.120Z,54.60
2017-04-26T15:21:28.277Z,54.10
2017-04-26T15:22:26.792Z,54.10
2017-04-26T15:23:25.217Z,53.10
2017-04-26T15:24:23.609Z,53.40
2017-04-26T15:25:22.013Z,54.40
2017-04-26T15:26:20.411Z,53.80
2017-04-26T15:27:18.816Z,53.80
2017-04-26T15:28:17.491Z,54.50
2017-04-26T15:29:15.921Z,54.10
2017-04-26T15:30:14.296Z,55.10
2017-04-26T15:31:12.697Z,55.90
2017-04-26T15:32:11.493Z,55.80
2017-04-26T15:33:09.996Z,55.80
2017-04-26T15:34:08.698Z,55.00
2017-04-26T15:35:07.089Z,54.60
2017-04-26T15:36:05.624Z,54.40
2017-04-26T15:37:04.442Z,54.30
2017-04-26T15:38:03.068Z,54.40
2017-04-26T15:39:01.463Z,55.20
2017-04-26T15:40:00.130Z,56.20
2017-04-26T15:40:58.524Z,56.00
2017-04-26T15:41:57.305Z,56.40
2017-04-26T15:42:56.073Z,56.30
2017-04-26T15:43:54.443Z,56.30
2017-04-26T15:44:52.812Z,56.90
2017-04-26T15:45:51.486Z,56.30
2017-04-26T15:46:49.896Z,56.60
2017-04-26T15:47:48.494Z,56.60
2017-04-26T15:48:46.887Z,56.40
2017-04-26T15:49:45.261Z,55.70
2017-04-26T15:50:43.711Z,53.90
2017-04-26T15:51:42.989Z,54.10
2017-04-26T15:52:41.353Z,55.40
2017-04-26T15:53:39.688Z,55.40
2017-04-26T15:54:38.044Z,55.70
2017-04-26T15:55:36.423Z,56.70
2017-04-26T15:56:34.785Z,55.60
2017-04-26T15:57:34.063Z,56.30
2017-04-26T15:58:32.812Z,56.50
2017-04-26T15:59:31.152Z,55.40
2017-04-26T16:00:29.476Z,55.20
2017-04-26T16:01:27.815Z,55.40
2017-04-26T16:02:26.155Z,55.80
2017-04-26T16:03:24.750Z,56.00
2017-04-26T16:04:23.083Z,56.50
2017-04-26T16:05:21.451Z,55.30
2017-04-26T16:06:19.782Z,55.50
2017-04-26T16:07:18.540Z,56.40
2017-04-26T16:08:16.902Z,56.40
2017-04-26T16:09:15.548Z,56.20
2017-04-26T16:10:13.907Z,55.70
2017-04-26T16:11:12.256Z,56.20
2017-04-26T16:12:10.601Z,56.70
2017-04-26T16:13:09.330Z,56.80
2017-04-26T16:14:07.659Z,56.80
2017-04-26T16:15:06.228Z,56.70
2017-04-26T16:16:04.568Z,56.90
2017-04-26T16:17:03.311Z,56.60
2017-04-26T16:18:01.663Z,56.70
2017-04-26T16:19:00.400Z,57.00
2017-04-26T16:19:58.763Z,56.90
2017-04-26T16:20:57.545Z,56.50
2017-04-26T16:21:56.284Z,56.40
2017-04-26T16:22:54.645Z,56.40
2017-04-26T16:23:52.984Z,56.90
2017-04-26T16:24:51.312Z,56.80
2017-04-26T16:25:49.680Z,57.40
2017-04-26T16:26:48.293Z,56.60
2017-04-26T16:27:46.630Z,57.10
2017-04-26T16:28:44.951Z,55.80
2017-04-26T16:29:43.297Z,56.50
2017-04-26T16:30:41.678Z,56.90
2017-04-26T16:31:40.039Z,56.50
2017-04-26T16:32:38.683Z,56.80
2017-04-26T16:33:36.998Z,57.20
2017-04-26T16:34:35.343Z,57.20
2017-04-26T16:35:34.075Z,56.70
2017-04-26T16:36:32.438Z,56.70
2017-04-26T16:37:30.756Z,57.70
2017-04-26T16:38:29.230Z,57.90
2017-04-26T16:39:27.587Z,56.90
2017-04-26T16:40:25.939Z,55.70
2017-04-26T16:41:24.642Z,57.40
2017-04-26T16:42:22.962Z,57.40
2017-04-26T16:43:21.306Z,57.60
2017-04-26T16:44:19.916Z,57.40
2017-04-26T16:45:18.283Z,57.60
2017-04-26T16:46:16.618Z,57.10
2017-04-26T16:47:14.975Z,56.90
2017-04-26T16:48:13.715Z,56.30
2017-04-26T16:49:12.058Z,56.30
2017-04-26T16:50:10.658Z,56.00
2017-04-26T16:51:09.028Z,56.50
2017-04-26T16:52:07.360Z,56.70
2017-04-26T16:53:05.683Z,56.70
2017-04-26T16:54:04.041Z,56.30
2017-04-26T16:55:02.385Z,56.30
2017-04-26T16:56:01.026Z,56.20
2017-04-26T16:56:59.367Z,56.10
2017-04-26T16:57:57.700Z,56.10
2017-04-26T16:58:56.442Z,56.30
2017-04-26T16:59:54.795Z,56.30
2017-04-26T17:00:53.172Z,56.40
2017-04-26T17:01:51.723Z,56.60
2017-04-26T17:02:50.077Z,56.80
2017-04-26T17:03:48.416Z,56.70
2017-04-26T17:04:46.756Z,56.50
2017-04-26T17:05:45.116Z,56.40
2017-04-26T17:06:43.482Z,56.00
2017-04-26T17:07:41.983Z,56.00
2017-04-26T17:08:40.359Z,56.10
2017-04-26T17:09:38.712Z,56.30
2017-04-26T17:10:37.084Z,56.20
2017-04-26T17:11:35.441Z,56.10
2017-04-26T17:12:33.787Z,56.60
2017-04-26T17:13:32.312Z,57.20
2017-04-26T17:14:30.814Z,57.60
2017-04-26T17:15:29.759Z,57.80
2017-04-26T17:16:28.096Z,58.10
2017-04-26T17:17:26.447Z,58.30
2017-04-26T17:18:24.816Z,58.50
2017-04-26T17:19:24.259Z,59.10
2017-04-26T17:20:24.195Z,59.00
2017-04-26T17:21:23.967Z,59.80
2017-04-26T17:22:22.371Z,58.90
2017-04-26T17:23:23.754Z,59.60
2017-04-26T17:24:22.518Z,60.20
2017-04-26T17:25:21.126Z,60.20
2017-04-26T17:26:19.486Z,60.40
2017-04-26T17:27:19.074Z,59.50
2017-04-26T17:28:17.420Z,59.00
2017-04-26T17:29:16.533Z,59.30
2017-04-26T17:30:15.300Z,59.30
2017-04-26T17:31:13.938Z,59.80
2017-04-26T17:32:12.658Z,59.00
2017-04-26T17:33:11.024Z,59.00
2017-04-26T17:34:09.376Z,59.60
2017-04-26T17:35:07.750Z,59.70
2017-04-26T17:36:06.076Z,58.40
2017-04-26T17:37:05.213Z,58.40
2017-04-26T17:38:03.612Z,58.20
2017-04-26T17:39:02.036Z,58.90
2017-04-26T17:40:00.412Z,59.20
2017-04-26T17:40:59.143Z,58.90
2017-04-26T17:41:57.503Z,59.00
2017-04-26T17:42:56.150Z,59.00
2017-04-26T17:43:54.480Z,59.20
2017-04-26T17:44:52.812Z,59.80
2017-04-26T17:45:51.186Z,59.90
2017-04-26T17:46:49.515Z,60.00
2017-04-26T17:47:48.250Z,60.40
2017-04-26T17:48:48.981Z,60.40
2017-04-26T17:49:48.554Z,60.50
2017-04-26T17:50:47.920Z,60.90
2017-04-26T17:51:47.133Z,60.70
2017-04-26T17:52:45.777Z,60.70
2017-04-26T17:53:44.596Z,61.40
2017-04-26T17:54:44.047Z,61.80
2017-04-26T17:55:42.761Z,61.60
2017-04-26T17:56:41.563Z,61.60
2017-04-26T17:57:40.648Z,62.00
2017-04-26T17:58:39.484Z,61.50
2017-04-26T17:59:38.247Z,61.00
2017-04-26T18:00:37.066Z,60.90
2017-04-26T18:01:36.669Z,61.30
2017-04-26T18:02:36.206Z,61.70
2017-04-26T18:03:35.220Z,62.00
2017-04-26T18:04:34.048Z,62.00
2017-04-26T18:05:33.026Z,62.00
2017-04-26T18:06:31.861Z,62.10
2017-04-26T18:07:31.369Z,62.20
2017-04-26T18:08:30.379Z,62.40
2017-04-26T18:09:28.884Z,62.20
2017-04-26T18:10:28.322Z,62.30
2017-04-26T18:11:27.574Z,62.30
2017-04-26T18:12:26.629Z,62.20
2017-04-26T18:13:25.500Z,62.10
2017-04-26T18:14:24.823Z,62.50
2017-04-26T18:15:24.738Z,62.00
2017-04-26T18:16:23.664Z,62.70
2017-04-26T18:17:23.055Z,62.70
2017-04-26T18:18:22.372Z,63.00
2017-04-26T18:19:21.812Z,63.00
2017-04-26T18:20:20.756Z,62.70
2017-04-26T18:21:19.516Z,62.00
2017-04-26T18:22:18.407Z,62.10
2017-04-26T18:23:17.645Z,61.60
2017-04-26T18:24:16.427Z,62.30
2017-04-26T18:25:16.255Z,62.70
2017-04-26T18:26:15.170Z,63.10
2017-04-26T18:27:14.053Z,63.10
2017-04-26T18:28:13.032Z,63.40
2017-04-26T18:29:12.999Z,63.40
2017-04-26T18:30:11.566Z,63.40
2017-04-26T18:31:10.510Z,63.50
2017-04-26T18:32:09.932Z,63.80
2017-04-26T18:33:09.180Z,63.50
2017-04-26T18:34:07.827Z,63.50
2017-04-26T18:35:08.223Z,63.90
2017-04-26T18:36:07.571Z,63.70
2017-04-26T18:37:07.015Z,63.70
2017-04-26T18:38:05.384Z,63.50
2017-04-26T18:39:04.383Z,63.60
2017-04-26T18:40:04.034Z,64.10
2017-04-26T18:41:03.625Z,64.10
2017-04-26T18:42:02.718Z,64.40
2017-04-26T18:43:02.604Z,65.00
2017-04-26T18:44:01.429Z,65.00
2017-04-26T18:45:00.612Z,65.50
2017-04-26T18:45:59.352Z,65.50
2017-04-26T18:46:58.613Z,65.30
2017-04-26T18:47:57.458Z,65.50
2017-04-26T18:48:56.646Z,65.20
2017-04-26T18:49:55.437Z,65.00
2017-04-26T18:50:55.184Z,62.00
2017-04-26T18:51:54.898Z,62.40
2017-04-26T18:52:53.832Z,62.40
2017-04-26T18:53:52.576Z,62.10
2017-04-26T18:54:51.557Z,62.80
2017-04-26T18:55:51.071Z,62.80
2017-04-26T18:56:49.919Z,62.60
2017-04-26T18:57:48.906Z,61.80
2017-04-26T18:58:47.839Z,60.80
2017-04-26T18:59:46.962Z,61.40
2017-04-26T19:00:46.005Z,61.40
2017-04-26T19:01:46.003Z,61.50
2017-04-26T19:02:46.055Z,61.50
2017-04-26T19:03:44.696Z,60.90
2017-04-26T19:04:43.490Z,60.40